Historyczne dane pomiarowe

Dodano dane terminowe – wersja testowa.

Dane z okresu 1951-2019

Wersja bazy: 1.34 [2019-03-16, lista zmian], aktualizacja planowana na 2019-04-15

Dane meteo z obszaru Polski uzyskane na podstawie danych udostępnionych przez Instytut Meteorologii i Gospodarki Wodnej – Państwowy Instytut Badawczy.

 

Wybierz Datę:    

       

TemperaturaWilgotnośćWiatrCiśnienieOpadyŚniegCzas trwania zjawisk
 Stacja t tx tn tng RH VA  wxwx mslp ppp RRR   cm mm wxwxwxwxwxwxwx
1987-08-14 13.7 18.1 8.7 6.0 84.3- 6.0 2.0---- 1.2------------
1987-08-13 13.5 19.4 7.5 5.6 77.5- 7.0 1.3---- 0.0------------
1987-08-12 13.7 18.7 8.6 7.8 72.0- 7.0 3.0---- 0.0------------
1987-08-11 13.7 18.4 11.4 11.0 86.0- 7.0 4.7---- 1.1------------
1987-08-10 15.0 19.8 12.7 13.5 91.0- 8.0 2.7---- 1.6------------
1987-08-09 16.8 23.8 11.5 9.0 75.0- 6.7 0.7---- 3.7------------
1987-08-08 14.2 21.7 7.4 5.8 73.0- 5.7 2.3---- 0.7------------
1987-08-07 13.0 19.3 7.6 7.0 72.0- 6.3 2.0---- 0.0------------
1987-08-06 11.9 15.0 10.4 10.0 85.0- 8.0 4.3---- 1.3------------
1987-08-05 12.6 17.1 8.4 7.3 76.0- 6.0 3.0---- 0.0------------
1987-08-04 13.3 16.1 11.2 9.0 82.0- 6.7 2.7---- 2.9------------
1987-08-03 13.3 18.7 8.9 7.9 75.0- 8.0 2.3---- 1.1------------
1987-08-02 14.1 18.4 11.0 10.0 73.3- 6.3 4.3---- 2.0------------
1987-08-01 15.6 17.9 13.4 12.4 86.8- 7.0 3.7---- 4.9------------
1987-07-31 15.7 19.9 13.0 13.5 86.5- 7.3 2.7---- 4.1------------
1987-07-30 17.2 23.3 10.2 8.5 75.0- 7.3 1.3---- 0.7------------
1987-07-29 15.0 19.1 11.0 10.5 74.5- 5.3 3.7---- 0.0------------
1987-07-28 14.0 18.9 12.0 12.1 81.0- 7.3 4.7---- 0.2------------
1987-07-27 13.0 16.4 8.7 7.6 69.8- 7.7 5.0---- 1.9------------
1987-07-26 13.8 17.9 11.0 9.6 75.0- 5.7 3.7---- 0.0------------
1987-07-25 17.1 21.5 14.2 12.6 79.8- 5.3 3.0---- 0.0------------
1987-07-24 19.2 25.1 15.9 15.4 72.3- 5.7 2.3---- 0.0------------
1987-07-23 20.4 26.4 14.2 12.9 78.3- 5.3 1.3---- 0.0------------
1987-07-22 19.6 23.9 16.0 14.6 87.8- 6.7 1.0---- 0.0------------
1987-07-21 19.5 25.1 12.1 10.5 77.3- 1.3 0.3---- 0.1------------
1987-07-20 18.3 22.8 15.4 16.5 87.0- 7.0 2.0---- 1.0------------
1987-07-19 19.0 22.7 17.0 17.0 89.3- 8.0 2.7---- 14.9------------
1987-07-18 20.6 24.4 17.8 17.7 88.8- 6.7 2.3---- 0.0------------
1987-07-17 18.5 24.4 14.4 13.0 84.0- 7.3 3.3---- 19.6------------
1987-07-16 18.0 23.8 10.8 8.5 69.5- 5.3 3.0---- 0.0------------
1987-07-15 16.5 22.4 8.1 5.6 69.0- 1.3 2.0---- 0.0------------
1987-07-14 16.7 20.9 10.5 9.4 71.5- 2.0 2.3---- 0.0------------
1987-07-13 15.5 18.7 12.0 10.5 80.5- 6.0 4.3---- 0.0------------
1987-07-12 16.8 18.9 15.2 15.0 91.8- 8.0 2.3---- 21.8------------
1987-07-11 14.3 18.7 10.2 8.6 87.0- 8.0 2.7---- 32.7------------
1987-07-10 14.0 17.9 10.0 9.2 75.3- 6.0 4.0---- 0.4------------
1987-07-09 16.3 21.0 15.0 15.5 88.8- 7.0 1.7---- 4.4------------
1987-07-08 20.5 28.1 14.0 12.1 76.5- 6.0 3.3---- 19.2------------
1987-07-07 19.9 25.8 10.8 8.4 70.5- 2.7 2.3---- 0.0------------
1987-07-06 17.9 24.3 8.9 6.3 71.5- 0.3 0.7---- 0.0------------
1987-07-05 16.7 21.9 11.3 10.5 69.0- 2.7 3.7---- 0.0------------
1987-07-04 18.3 22.4 13.4 10.8 64.5- 4.3 0.7---- 0.0------------
1987-07-03 18.1 22.8 11.6 9.2 67.8- 3.7 0.7---- 0.0------------
1987-07-02 19.6 22.9 15.0 14.0 70.5- 1.3 1.0---- 0.0------------
1987-07-01 23.7 29.6 19.4 17.5 82.8- 4.7 1.3---- 0.4------------
1987-06-30 24.2 28.9 19.3 17.8 80.0- 4.3 0.7---- 0.0------------
1987-06-29 18.2 24.8 10.4 7.5 86.5- 7.3 2.0---- 0.0------------
1987-06-28 17.0 21.3 14.4 11.5 87.3- 6.3 2.0---- 0.1------------
1987-06-27 18.1 21.4 15.8 13.0 78.8- 5.0 2.0---- 0.0------------
1987-06-26 16.5 21.6 11.9 12.5 81.5- 8.0 2.0---- 0.4------------
1987-06-25 13.4 16.8 10.0 10.7 87.8- 8.0 3.0---- 2.7------------
1987-06-24 15.2 19.4 11.5 10.5 78.8- 7.3 2.7---- 19.5------------
1987-06-23 15.4 19.8 13.0 12.5 85.0- 7.7 0.7---- 1.0------------
1987-06-22 17.1 23.7 13.8 10.0 86.8- 6.0 3.7---- 7.9------------
1987-06-21 17.3 24.1 10.4 8.8 74.0- 6.0 3.0---- 0.0------------
1987-06-20 14.6 21.3 6.7 4.5 78.0- 6.0 3.0---- 1.6------------
1987-06-19 11.7 16.4 8.3 7.1 82.8- 7.7 2.0---- 0.3------------
1987-06-18 9.9 15.5 6.1 5.7 84.8- 6.0 4.3---- 0.4------------
1987-06-17 11.9 14.5 10.3 10.3 74.8- 7.0 4.3---- 0.0------------
1987-06-16 12.4 23.2 10.0 10.9 90.8- 8.0 6.0---- 11.2------------
499.2 ms

 

Źródłem pochodzenia danych jest Instytut Meteorologii i Gospodarki Wodnej – Państwowy Instytut Badawczy. Dane Instytutu Meteorologii i Gospodarki Wodnej – Państwowego Instytutu Badawczego zostały przetworzone.

Dane źródłowe można odnaleźć na stronie https://dane.imgw.pl